Terminal Aerodrome Forecast
Issued by NWS

Home | Current Version | Previous Version | Text Only | Print | Product List | Glossary On
Versions: 1 2 3 4 5 6 7 8 9 10 11 12 13 14 15
296
FTUS45 KTFX 232338
TAFHVR
TAF
KHVR 232338Z 2400/2424 24019G31KT P6SM FEW200
     FM240300 24021G34KT P6SM SCT040 BKN080
     FM240900 26018G27KT P6SM SCT200=

USA.gov is the U.S. government's official web portal to all federal, state and local government web resources and services.